Lloret de Mar, Spain
Current Conditions -  °F | °C
As of 3:00 AM on Tuesday 25 Nov 2014 (Local Time) from LEGE Reporting Station
Scattered Clouds Scattered Clouds  
Wind Chill: 59°   Ceiling: Unl
Heat Index: 59°   Visibility: 6mi
Dew Point: 59°   Wind: 3mph
Humidity: 100%   Direction: 360°N
Pressure: 30.03"   Gusts: NA
Location:  41.7°N, 2.85°E
Report Text: LEGE 250200Z 36003KT 320V040 9999 SCT016 15/15 Q1017
Loading
Personal Weather Stations






























Interactive Weather Map New forecast layout! Learn more

10-Day Weather Forecast

Advertisements
Track Severe Weather on mobile